sensor_id;sensor_type;location;lat;lon;timestamp;pressure;altitude;pressure_sealevel;temperature;humidity
74045;BME280;62389;51.412;5.436;2023-09-12T00:01:28;101185.47;;;20.39;100.00
74045;BME280;62389;51.412;5.436;2023-09-12T00:03:58;101189.47;;;20.33;100.00
74045;BME280;62389;51.412;5.436;2023-09-12T00:06:23;101176.06;;;20.35;100.00
74045;BME280;62389;51.412;5.436;2023-09-12T00:08:49;101181.59;;;20.32;100.00
74045;BME280;62389;51.412;5.436;2023-09-12T00:11:14;101170.97;;;20.32;100.00
74045;BME280;62389;51.412;5.436;2023-09-12T00:13:40;101168.31;;;20.32;100.00
74045;BME280;62389;51.412;5.436;2023-09-12T00:16:06;101164.22;;;20.28;100.00
74045;BME280;62389;51.412;5.436;2023-09-12T00:18:32;101172.44;;;20.25;100.00
74045;BME280;62389;51.412;5.436;2023-09-12T00:20:59;101178.84;;;20.11;100.00
74045;BME280;62389;51.412;5.436;2023-09-12T00:23:26;101166.75;;;20.07;100.00
74045;BME280;62389;51.412;5.436;2023-09-12T00:25:52;101177.50;;;20.05;100.00
74045;BME280;62389;51.412;5.436;2023-09-12T00:28:21;101178.22;;;20.07;100.00
74045;BME280;62389;51.412;5.436;2023-09-12T00:30:47;101178.00;;;20.10;100.00
74045;BME280;62389;51.412;5.436;2023-09-12T00:33:12;101178.69;;;20.12;100.00
74045;BME280;62389;51.412;5.436;2023-09-12T00:35:38;101177.75;;;20.13;100.00
74045;BME280;62389;51.412;5.436;2023-09-12T00:38:03;101175.94;;;20.14;100.00
74045;BME280;62389;51.412;5.436;2023-09-12T00:40:29;101177.75;;;20.13;100.00
74045;BME280;62389;51.412;5.436;2023-09-12T00:42:55;101176.78;;;20.14;100.00
74045;BME280;62389;51.412;5.436;2023-09-12T00:45:20;101172.44;;;20.13;100.00
74045;BME280;62389;51.412;5.436;2023-09-12T00:47:47;101181.34;;;20.12;100.00
74045;BME280;62389;51.412;5.436;2023-09-12T00:50:13;101173.66;;;20.09;100.00
74045;BME280;62389;51.412;5.436;2023-09-12T00:52:40;101176.53;;;20.06;100.00
74045;BME280;62389;51.412;5.436;2023-09-12T00:55:06;101174.38;;;20.11;98.90
74045;BME280;62389;51.412;5.436;2023-09-12T00:57:33;101173.16;;;20.04;100.00
74045;BME280;62389;51.412;5.436;2023-09-12T01:00:02;101169.28;;;19.97;100.00
74045;BME280;62389;51.412;5.436;2023-09-12T01:02:29;101172.91;;;19.96;100.00
74045;BME280;62389;51.412;5.436;2023-09-12T01:04:54;101174.72;;;19.96;100.00
74045;BME280;62389;51.412;5.436;2023-09-12T01:07:20;101165.78;;;19.97;100.00
74045;BME280;62389;51.412;5.436;2023-09-12T01:09:45;101168.56;;;19.95;100.00
74045;BME280;62389;51.412;5.436;2023-09-12T01:12:11;101159.00;;;19.92;100.00
74045;BME280;62389;51.412;5.436;2023-09-12T01:14:39;101163.47;;;19.92;100.00
74045;BME280;62389;51.412;5.436;2023-09-12T01:17:05;101166.75;;;19.96;100.00
74045;BME280;62389;51.412;5.436;2023-09-12T01:19:30;101165.78;;;19.97;100.00
74045;BME280;62389;51.412;5.436;2023-09-12T01:27:28;101157.81;;;19.97;100.00
74045;BME280;62389;51.412;5.436;2023-09-12T01:30:02;101167.59;;;19.96;100.00
74045;BME280;62389;51.412;5.436;2023-09-12T01:32:29;101168.69;;;19.94;100.00
74045;BME280;62389;51.412;5.436;2023-09-12T01:34:56;101167.09;;;19.91;100.00
74045;BME280;62389;51.412;5.436;2023-09-12T01:37:21;101160.47;;;19.85;100.00
74045;BME280;62389;51.412;5.436;2023-09-12T01:39:47;101164.94;;;19.74;100.00
74045;BME280;62389;51.412;5.436;2023-09-12T01:42:15;101163.69;;;19.66;100.00
74045;BME280;62389;51.412;5.436;2023-09-12T01:44:45;101166.69;;;19.62;100.00
74045;BME280;62389;51.412;5.436;2023-09-12T01:47:12;101167.53;;;19.62;100.00
74045;BME280;62389;51.412;5.436;2023-09-12T01:49:41;101173.72;;;19.63;100.00
74045;BME280;62389;51.412;5.436;2023-09-12T01:52:07;101180.72;;;19.64;100.00
74045;BME280;62389;51.412;5.436;2023-09-12T01:54:33;101175.84;;;19.58;100.00
74045;BME280;62389;51.412;5.436;2023-09-12T01:57:00;101172.22;;;19.59;100.00
74045;BME280;62389;51.412;5.436;2023-09-12T01:59:26;101163.31;;;19.60;100.00
74045;BME280;62389;51.412;5.436;2023-09-12T02:01:51;101163.09;;;19.63;100.00
74045;BME280;62389;51.412;5.436;2023-09-12T02:04:17;101152.38;;;19.64;100.00
74045;BME280;62389;51.412;5.436;2023-09-12T02:06:42;101146.31;;;19.62;100.00
74045;BME280;62389;51.412;5.436;2023-09-12T02:09:08;101143.38;;;19.54;100.00
74045;BME280;62389;51.412;5.436;2023-09-12T02:11:33;101149.16;;;19.48;100.00
74045;BME280;62389;51.412;5.436;2023-09-12T02:13:58;101149.50;;;19.44;100.00
74045;BME280;62389;51.412;5.436;2023-09-12T02:16:24;101148.19;;;19.38;100.00
74045;BME280;62389;51.412;5.436;2023-09-12T02:18:49;101150.81;;;19.38;100.00
74045;BME280;62389;51.412;5.436;2023-09-12T02:21:14;101157.69;;;19.40;100.00
74045;BME280;62389;51.412;5.436;2023-09-12T02:23:41;101147.91;;;19.41;100.00
74045;BME280;62389;51.412;5.436;2023-09-12T02:26:06;101151.53;;;19.40;100.00
74045;BME280;62389;51.412;5.436;2023-09-12T02:28:32;101151.53;;;19.40;100.00
74045;BME280;62389;51.412;5.436;2023-09-12T02:30:57;101147.06;;;19.40;100.00
74045;BME280;62389;51.412;5.436;2023-09-12T02:33:23;101145.28;;;19.41;100.00
74045;BME280;62389;51.412;5.436;2023-09-12T02:35:48;101147.91;;;19.41;100.00
74045;BME280;62389;51.412;5.436;2023-09-12T02:38:13;101147.22;;;19.39;100.00
74045;BME280;62389;51.412;5.436;2023-09-12T02:40:39;101151.75;;;19.37;100.00
74045;BME280;62389;51.412;5.436;2023-09-12T02:43:04;101146.72;;;19.34;100.00
74045;BME280;62389;51.412;5.436;2023-09-12T02:45:30;101145.03;;;19.33;100.00
74045;BME280;62389;51.412;5.436;2023-09-12T02:47:55;101160.31;;;19.29;100.00
74045;BME280;62389;51.412;5.436;2023-09-12T02:50:20;101157.03;;;19.26;100.00
74045;BME280;62389;51.412;5.436;2023-09-12T02:52:46;101151.03;;;19.24;100.00
74045;BME280;62389;51.412;5.436;2023-09-12T02:55:11;101153.88;;;19.21;100.00
74045;BME280;62389;51.412;5.436;2023-09-12T02:57:37;101159.41;;;19.18;100.00
74045;BME280;62389;51.412;5.436;2023-09-12T03:00:02;101170.25;;;19.14;100.00
74045;BME280;62389;51.412;5.436;2023-09-12T03:02:31;101178.03;;;19.05;100.00
74045;BME280;62389;51.412;5.436;2023-09-12T03:04:56;101169.72;;;18.98;100.00
74045;BME280;62389;51.412;5.436;2023-09-12T03:07:22;101162.59;;;18.99;100.00
74045;BME280;62389;51.412;5.436;2023-09-12T03:09:50;101167.06;;;18.98;100.00
74045;BME280;62389;51.412;5.436;2023-09-12T03:12:16;101161.75;;;18.98;100.00
74045;BME280;62389;51.412;5.436;2023-09-12T03:14:41;101154.75;;;18.97;100.00
74045;BME280;62389;51.412;5.436;2023-09-12T03:17:07;101154.75;;;18.97;100.00
74045;BME280;62389;51.412;5.436;2023-09-12T03:19:32;101144.13;;;18.97;100.00
74045;BME280;62389;51.412;5.436;2023-09-12T03:21:57;101143.53;;;18.94;100.00
74045;BME280;62389;51.412;5.436;2023-09-12T03:24:23;101129.44;;;18.93;100.00
74045;BME280;62389;51.412;5.436;2023-09-12T03:26:50;101138.34;;;18.92;100.00
74045;BME280;62389;51.412;5.436;2023-09-12T03:29:16;101139.53;;;18.88;100.00
74045;BME280;62389;51.412;5.436;2023-09-12T03:31:41;101139.25;;;18.80;100.00
74045;BME280;62389;51.412;5.436;2023-09-12T03:34:07;101148.41;;;18.63;100.00
74045;BME280;62389;51.412;5.436;2023-09-12T03:36:32;101145.56;;;18.53;100.00
74045;BME280;62389;51.412;5.436;2023-09-12T03:38:58;101138.34;;;18.55;100.00
74045;BME280;62389;51.412;5.436;2023-09-12T03:41:23;101137.31;;;18.58;100.00
74045;BME280;62389;51.412;5.436;2023-09-12T03:43:52;101142.25;;;18.62;100.00
74045;BME280;62389;51.412;5.436;2023-09-12T03:46:18;101143.72;;;18.67;100.00
74045;BME280;62389;51.412;5.436;2023-09-12T03:48:43;101137.25;;;18.71;100.00
74045;BME280;62389;51.412;5.436;2023-09-12T03:51:09;101132.59;;;18.74;100.00
74045;BME280;62389;51.412;5.436;2023-09-12T03:53:34;101133.66;;;18.72;100.00
74045;BME280;62389;51.412;5.436;2023-09-12T03:55:59;101140.13;;;18.68;100.00
74045;BME280;62389;51.412;5.436;2023-09-12T03:58:25;101138.22;;;18.70;100.00
74045;BME280;62389;51.412;5.436;2023-09-12T04:00:50;101137.06;;;18.74;100.00
74045;BME280;62389;51.412;5.436;2023-09-12T04:03:16;101141.28;;;18.76;100.00
74045;BME280;62389;51.412;5.436;2023-09-12T04:05:41;101136.59;;;18.80;100.00
74045;BME280;62389;51.412;5.436;2023-09-12T04:08:07;101141.69;;;18.83;100.00
74045;BME280;62389;51.412;5.436;2023-09-12T04:10:32;101137.09;;;18.85;100.00
74045;BME280;62389;51.412;5.436;2023-09-12T04:12:57;101135.31;;;18.85;100.00
74045;BME280;62389;51.412;5.436;2023-09-12T04:15:23;101134.66;;;18.82;100.00
74045;BME280;62389;51.412;5.436;2023-09-12T04:17:48;101129.38;;;18.82;100.00
74045;BME280;62389;51.412;5.436;2023-09-12T04:20:14;101131.09;;;18.83;100.00
74045;BME280;62389;51.412;5.436;2023-09-12T04:22:41;101126.72;;;18.82;100.00
74045;BME280;62389;51.412;5.436;2023-09-12T04:25:06;101135.13;;;18.76;100.00
74045;BME280;62389;51.412;5.436;2023-09-12T04:27:32;101133.06;;;18.68;100.00
74045;BME280;62389;51.412;5.436;2023-09-12T04:29:57;101133.34;;;18.63;100.00
74045;BME280;62389;51.412;5.436;2023-09-12T04:32:22;101137.19;;;18.59;100.00
74045;BME280;62389;51.412;5.436;2023-09-12T04:34:49;101133.78;;;18.57;100.00
74045;BME280;62389;51.412;5.436;2023-09-12T04:37:14;101140.66;;;18.60;100.00
74045;BME280;62389;51.412;5.436;2023-09-12T04:39:40;101138.56;;;18.52;100.00
74045;BME280;62389;51.412;5.436;2023-09-12T04:42:05;101158.50;;;18.45;100.00
74045;BME280;62389;51.412;5.436;2023-09-12T04:44:39;101157.56;;;18.46;100.00
74045;BME280;62389;51.412;5.436;2023-09-12T04:47:04;101154.69;;;18.49;100.00
74045;BME280;62389;51.412;5.436;2023-09-12T04:49:30;101153.53;;;18.53;100.00
74045;BME280;62389;51.412;5.436;2023-09-12T04:51:55;101159.34;;;18.58;100.00
74045;BME280;62389;51.412;5.436;2023-09-12T04:54:20;101158.25;;;18.61;100.00
74045;BME280;62389;51.412;5.436;2023-09-12T04:56:46;101157.19;;;18.63;100.00
74045;BME280;62389;51.412;5.436;2023-09-12T04:59:12;101159.72;;;18.65;100.00
74045;BME280;62389;51.412;5.436;2023-09-12T05:01:37;101154.25;;;18.68;100.00
74045;BME280;62389;51.412;5.436;2023-09-12T05:04:03;101161.31;;;18.68;100.00
74045;BME280;62389;51.412;5.436;2023-09-12T05:06:28;101154.44;;;18.65;100.00
74045;BME280;62389;51.412;5.436;2023-09-12T05:08:54;101159.59;;;18.67;100.00
74045;BME280;62389;51.412;5.436;2023-09-12T05:11:19;101153.59;;;18.64;100.00
74045;BME280;62389;51.412;5.436;2023-09-12T05:13:45;101151.91;;;18.63;100.00
74045;BME280;62389;51.412;5.436;2023-09-12T05:16:10;101145.75;;;18.63;100.00
74045;BME280;62389;51.412;5.436;2023-09-12T05:18:35;101134.31;;;18.62;100.00
74045;BME280;62389;51.412;5.436;2023-09-12T05:21:01;101136.00;;;18.63;100.00
74045;BME280;62389;51.412;5.436;2023-09-12T05:23:26;101143.19;;;18.61;100.00
74045;BME280;62389;51.412;5.436;2023-09-12T05:25:52;101134.31;;;18.62;100.00
74045;BME280;62389;51.412;5.436;2023-09-12T05:28:17;101129.03;;;18.62;100.00
74045;BME280;62389;51.412;5.436;2023-09-12T05:30:43;101129.03;;;18.62;100.00
74045;BME280;62389;51.412;5.436;2023-09-12T05:33:08;101116.72;;;18.61;100.00
74045;BME280;62389;51.412;5.436;2023-09-12T05:35:33;101116.72;;;18.61;100.00
74045;BME280;62389;51.412;5.436;2023-09-12T05:37:59;101118.44;;;18.62;100.00
74045;BME280;62389;51.412;5.436;2023-09-12T05:40:24;101123.72;;;18.62;100.00
74045;BME280;62389;51.412;5.436;2023-09-12T05:42:50;101121.06;;;18.62;100.00
74045;BME280;62389;51.412;5.436;2023-09-12T05:45:15;101132.59;;;18.61;100.00
74045;BME280;62389;51.412;5.436;2023-09-12T05:47:41;101130.91;;;18.60;100.00
74045;BME280;62389;51.412;5.436;2023-09-12T05:50:06;101136.22;;;18.60;100.00
74045;BME280;62389;51.412;5.436;2023-09-12T05:52:33;101141.00;;;18.55;100.00
74045;BME280;62389;51.412;5.436;2023-09-12T05:54:58;101138.56;;;18.52;100.00
74045;BME280;62389;51.412;5.436;2023-09-12T05:57:25;101147.47;;;18.51;100.00
74045;BME280;62389;51.412;5.436;2023-09-12T05:59:50;101154.44;;;18.52;100.00
74045;BME280;62389;51.412;5.436;2023-09-12T06:02:15;101151.72;;;18.54;100.00
74045;BME280;62389;51.412;5.436;2023-09-12T06:04:43;101150.88;;;18.53;100.00
74045;BME280;62389;51.412;5.436;2023-09-12T06:07:08;101149.78;;;18.56;100.00
74045;BME280;62389;51.412;5.436;2023-09-12T06:09:34;101145.34;;;18.56;100.00
74045;BME280;62389;51.412;5.436;2023-09-12T06:11:59;101141.72;;;18.57;100.00
74045;BME280;62389;51.412;5.436;2023-09-12T06:14:24;101144.38;;;18.57;100.00
74045;BME280;62389;51.412;5.436;2023-09-12T06:16:50;101139.94;;;18.58;100.00
74045;BME280;62389;51.412;5.436;2023-09-12T06:19:15;101142.47;;;18.59;100.00
74045;BME280;62389;51.412;5.436;2023-09-12T06:21:41;101145.00;;;18.61;100.00
74045;BME280;62389;51.412;5.436;2023-09-12T06:24:12;101137.06;;;18.61;100.00
74045;BME280;62389;51.412;5.436;2023-09-12T06:26:38;101147.44;;;18.64;100.00
74045;BME280;62389;51.412;5.436;2023-09-12T06:29:04;101152.75;;;18.64;100.00
74045;BME280;62389;51.412;5.436;2023-09-12T06:31:30;101156.69;;;18.58;100.00
74045;BME280;62389;51.412;5.436;2023-09-12T06:33:55;101158.91;;;18.52;100.00
74045;BME280;62389;51.412;5.436;2023-09-12T06:36:22;101176.72;;;18.50;100.00
74045;BME280;62389;51.412;5.436;2023-09-12T06:38:49;101166.75;;;18.53;100.00
74045;BME280;62389;51.412;5.436;2023-09-12T06:41:14;101174.25;;;18.59;100.00
74045;BME280;62389;51.412;5.436;2023-09-12T06:43:40;101176.72;;;18.62;100.00
74045;BME280;62389;51.412;5.436;2023-09-12T06:46:05;101181.75;;;18.66;100.00
74045;BME280;62389;51.412;5.436;2023-09-12T06:48:30;101181.59;;;18.69;100.00
74045;BME280;62389;51.412;5.436;2023-09-12T06:50:56;101188.75;;;18.67;100.00
74045;BME280;62389;51.412;5.436;2023-09-12T06:53:21;101191.41;;;18.67;100.00
74045;BME280;62389;51.412;5.436;2023-09-12T06:55:47;101184.28;;;18.67;100.00
74045;BME280;62389;51.412;5.436;2023-09-12T06:58:12;101183.06;;;18.73;100.00
74045;BME280;62389;51.412;5.436;2023-09-12T07:00:37;101185.47;;;18.76;100.00
74045;BME280;62389;51.412;5.436;2023-09-12T07:03:03;101187.06;;;18.78;100.00
74045;BME280;62389;51.412;5.436;2023-09-12T07:05:29;101172.63;;;18.82;100.00
74045;BME280;62389;51.412;5.436;2023-09-12T07:07:54;101166.25;;;18.85;100.00
74045;BME280;62389;51.412;5.436;2023-09-12T07:10:19;101164.97;;;18.91;100.00
74045;BME280;62389;51.412;5.436;2023-09-12T07:12:45;101168.88;;;18.98;100.00
74045;BME280;62389;51.412;5.436;2023-09-12T07:15:10;101164.66;;;19.06;100.00
74045;BME280;62389;51.412;5.436;2023-09-12T07:17:35;101157.22;;;19.11;100.00
74045;BME280;62389;51.412;5.436;2023-09-12T07:20:01;101173.47;;;19.07;100.00
74045;BME280;62389;51.412;5.436;2023-09-12T07:22:26;101178.25;;;19.02;100.00
74045;BME280;62389;51.412;5.436;2023-09-12T07:24:52;101181.25;;;18.97;100.00
74045;BME280;62389;51.412;5.436;2023-09-12T07:27:17;101175.09;;;18.97;100.00
74045;BME280;62389;51.412;5.436;2023-09-12T07:29:42;101181.03;;;19.00;100.00
74045;BME280;62389;51.412;5.436;2023-09-12T07:32:08;101183.13;;;19.08;100.00
74045;BME280;62389;51.412;5.436;2023-09-12T07:34:33;101185.09;;;19.17;100.00
74045;BME280;62389;51.412;5.436;2023-09-12T07:36:58;101173.69;;;19.28;100.00
74045;BME280;62389;51.412;5.436;2023-09-12T07:39:24;101171.91;;;19.39;100.00
74045;BME280;62389;51.412;5.436;2023-09-12T07:41:49;101172.56;;;19.54;100.00
74045;BME280;62389;51.412;5.436;2023-09-12T07:44:15;101181.56;;;19.64;100.00
74045;BME280;62389;51.412;5.436;2023-09-12T07:46:42;101181.06;;;19.71;100.00
74045;BME280;62389;51.412;5.436;2023-09-12T07:49:07;101178.06;;;19.75;100.00
74045;BME280;62389;51.412;5.436;2023-09-12T07:51:34;101179.28;;;19.82;100.00
74045;BME280;62389;51.412;5.436;2023-09-12T07:54:00;101177.72;;;19.91;100.00
74045;BME280;62389;51.412;5.436;2023-09-12T07:56:25;101181.50;;;20.00;100.00
74045;BME280;62389;51.412;5.436;2023-09-12T07:58:50;101181.63;;;20.09;100.00
74045;BME280;62389;51.412;5.436;2023-09-12T08:01:16;101173.41;;;20.24;100.00
74045;BME280;62389;51.412;5.436;2023-09-12T08:03:42;101182.56;;;20.42;100.00
74045;BME280;62389;51.412;5.436;2023-09-12T08:06:08;101189.06;;;20.72;100.00
74045;BME280;62389;51.412;5.436;2023-09-12T08:08:34;101192.88;;;21.44;97.92
74045;BME280;62389;51.412;5.436;2023-09-12T08:10:59;101204.28;;;22.29;93.91
74045;BME280;62389;51.412;5.436;2023-09-12T08:13:29;101200.31;;;23.13;91.59
74045;BME280;62389;51.412;5.436;2023-09-12T08:15:55;101203.66;;;23.93;87.71
74045;BME280;62389;51.412;5.436;2023-09-12T08:18:21;101211.91;;;24.74;80.08
74045;BME280;62389;51.412;5.436;2023-09-12T08:20:46;101220.94;;;25.18;77.82
74045;BME280;62389;51.412;5.436;2023-09-12T08:23:11;101217.88;;;25.13;75.79
74045;BME280;62389;51.412;5.436;2023-09-12T08:25:37;101227.91;;;24.84;77.85
74045;BME280;62389;51.412;5.436;2023-09-12T08:28:02;101226.34;;;24.36;73.73
74045;BME280;62389;51.412;5.436;2023-09-12T08:30:28;101228.09;;;23.98;80.55
74045;BME280;62389;51.412;5.436;2023-09-12T08:32:55;101232.38;;;23.81;81.53
74045;BME280;62389;51.412;5.436;2023-09-12T08:35:20;101226.19;;;23.71;83.65
74045;BME280;62389;51.412;5.436;2023-09-12T08:37:46;101233.19;;;23.43;80.03
74045;BME280;62389;51.412;5.436;2023-09-12T08:40:11;101238.09;;;23.09;82.91
74045;BME280;62389;51.412;5.436;2023-09-12T08:42:42;101235.91;;;22.83;83.44
74045;BME280;62389;51.412;5.436;2023-09-12T08:45:18;101227.19;;;22.71;87.84
74045;BME280;62389;51.412;5.436;2023-09-12T08:47:45;101241.88;;;22.56;85.94
74045;BME280;62389;51.412;5.436;2023-09-12T08:50:13;101248.91;;;22.27;85.23
74045;BME280;62389;51.412;5.436;2023-09-12T08:52:39;101256.56;;;21.99;86.21
74045;BME280;62389;51.412;5.436;2023-09-12T08:55:06;101254.03;;;21.77;87.71
74045;BME280;62389;51.412;5.436;2023-09-12T08:57:33;101248.91;;;21.85;88.94
74045;BME280;62389;51.412;5.436;2023-09-12T09:00:01;101238.81;;;23.11;84.83
74045;BME280;62389;51.412;5.436;2023-09-12T09:02:39;101221.22;;;24.42;77.47
74045;BME280;62389;51.412;5.436;2023-09-12T09:05:09;101221.59;;;26.60;78.48
74045;BME280;62389;51.412;5.436;2023-09-12T09:07:39;101213.47;;;28.72;65.35
74045;BME280;62389;51.412;5.436;2023-09-12T09:10:06;101211.34;;;30.27;56.54
74045;BME280;62389;51.412;5.436;2023-09-12T09:12:33;101208.56;;;31.43;56.27
74045;BME280;62389;51.412;5.436;2023-09-12T09:14:58;101213.03;;;32.48;50.06
74045;BME280;62389;51.412;5.436;2023-09-12T09:17:25;101211.56;;;33.27;47.09
74045;BME280;62389;51.412;5.436;2023-09-12T09:19:51;101219.94;;;33.19;42.70
74045;BME280;62389;51.412;5.436;2023-09-12T09:22:16;101211.03;;;32.29;43.93
74045;BME280;62389;51.412;5.436;2023-09-12T09:24:41;101207.78;;;30.56;48.17
74045;BME280;62389;51.412;5.436;2023-09-12T09:27:07;101200.72;;;29.20;51.58
74045;BME280;62389;51.412;5.436;2023-09-12T09:29:45;101209.03;;;28.48;58.95
74045;BME280;62389;51.412;5.436;2023-09-12T09:32:17;101205.78;;;28.13;58.62
74045;BME280;62389;51.412;5.436;2023-09-12T09:34:43;101208.66;;;27.96;57.82
74045;BME280;62389;51.412;5.436;2023-09-12T09:37:09;101194.25;;;27.64;59.16
74045;BME280;62389;51.412;5.436;2023-09-12T09:39:34;101200.97;;;27.35;61.80
74045;BME280;62389;51.412;5.436;2023-09-12T09:42:00;101198.09;;;27.21;60.92
74045;BME280;62389;51.412;5.436;2023-09-12T09:44:26;101210.47;;;26.97;59.86
74045;BME280;62389;51.412;5.436;2023-09-12T09:47:01;101207.56;;;26.74;64.69
74045;BME280;62389;51.412;5.436;2023-09-12T09:49:32;101214.56;;;26.51;64.06
74045;BME280;62389;51.412;5.436;2023-09-12T09:51:59;101218.16;;;26.42;66.44
74045;BME280;62389;51.412;5.436;2023-09-12T09:54:25;101210.97;;;26.42;69.39
74045;BME280;62389;51.412;5.436;2023-09-12T09:56:57;101208.84;;;26.46;69.33
74045;BME280;62389;51.412;5.436;2023-09-12T09:59:26;101203.56;;;26.36;67.03
74045;BME280;62389;51.412;5.436;2023-09-12T10:01:59;101207.88;;;26.29;66.57
74045;BME280;62389;51.412;5.436;2023-09-12T10:04:28;101205.34;;;26.27;67.32
74045;BME280;62389;51.412;5.436;2023-09-12T10:06:56;101201.84;;;26.27;68.76
74045;BME280;62389;51.412;5.436;2023-09-12T10:09:28;101200.31;;;26.24;67.28
74045;BME280;62389;51.412;5.436;2023-09-12T10:11:55;101196.78;;;26.24;66.96
74045;BME280;62389;51.412;5.436;2023-09-12T10:14:22;101197.31;;;26.27;68.54
74045;BME280;62389;51.412;5.436;2023-09-12T10:16:49;101204.28;;;26.12;66.58
74045;BME280;62389;51.412;5.436;2023-09-12T10:19:20;101206.63;;;25.89;69.39
74045;BME280;62389;51.412;5.436;2023-09-12T10:22:17;101194.75;;;25.66;68.35
74045;BME280;62389;51.412;5.436;2023-09-12T10:24:44;101195.97;;;25.53;68.51
74045;BME280;62389;51.412;5.436;2023-09-12T10:27:11;101183.75;;;25.51;68.06
74045;BME280;62389;51.412;5.436;2023-09-12T10:29:37;101183.88;;;25.49;67.70
74045;BME280;62389;51.412;5.436;2023-09-12T10:32:03;101191.53;;;25.44;70.13
74045;BME280;62389;51.412;5.436;2023-09-12T10:34:30;101182.00;;;25.42;69.86
74045;BME280;62389;51.412;5.436;2023-09-12T10:36:58;101184.72;;;25.50;69.81
74045;BME280;62389;51.412;5.436;2023-09-12T10:39:27;101186.00;;;25.64;67.79
74045;BME280;62389;51.412;5.436;2023-09-12T10:41:54;101197.31;;;25.75;70.07
74045;BME280;62389;51.412;5.436;2023-09-12T10:44:20;101202.44;;;25.69;69.59
74045;BME280;62389;51.412;5.436;2023-09-12T10:46:47;101199.44;;;25.46;67.87
74045;BME280;62389;51.412;5.436;2023-09-12T10:49:15;101198.06;;;25.42;69.19
74045;BME280;62389;51.412;5.436;2023-09-12T10:51:45;101188.41;;;25.49;69.17
74045;BME280;62389;51.412;5.436;2023-09-12T10:54:25;101188.50;;;25.39;67.99
74045;BME280;62389;51.412;5.436;2023-09-12T10:59:29;101196.41;;;25.41;71.59
74045;BME280;62389;51.412;5.436;2023-09-12T11:02:29;101195.38;;;25.42;71.78
74045;BME280;62389;51.412;5.436;2023-09-12T11:04:55;101196.69;;;25.38;71.38
74045;BME280;62389;51.412;5.436;2023-09-12T11:07:31;101187.91;;;25.45;72.40
74045;BME280;62389;51.412;5.436;2023-09-12T11:12:40;101185.78;;;25.57;70.24
74045;BME280;62389;51.412;5.436;2023-09-12T11:15:06;101176.22;;;25.54;69.47
74045;BME280;62389;51.412;5.436;2023-09-12T11:17:40;101179.09;;;25.35;67.27
74045;BME280;62389;51.412;5.436;2023-09-12T11:20:07;101175.56;;;25.35;72.40
74045;BME280;62389;51.412;5.436;2023-09-12T11:22:37;101178.06;;;25.54;69.36
74045;BME280;62389;51.412;5.436;2023-09-12T11:25:22;101179.25;;;25.34;67.47
74045;BME280;62389;51.412;5.436;2023-09-12T11:30:23;101183.31;;;25.38;69.06
74045;BME280;62389;51.412;5.436;2023-09-12T11:32:51;101182.25;;;25.30;72.70
74045;BME280;62389;51.412;5.436;2023-09-12T11:35:26;101181.94;;;25.16;69.87
74045;BME280;62389;51.412;5.436;2023-09-12T11:37:54;101188.09;;;24.98;71.04
74045;BME280;62389;51.412;5.436;2023-09-12T11:40:46;101183.97;;;25.04;70.49
74045;BME280;62389;51.412;5.436;2023-09-12T11:43:26;101180.78;;;25.18;70.83
74045;BME280;62389;51.412;5.436;2023-09-12T11:45:52;101179.63;;;25.39;70.60
74045;BME280;62389;51.412;5.436;2023-09-12T11:48:19;101186.72;;;25.48;68.52
74045;BME280;62389;51.412;5.436;2023-09-12T11:50:55;101181.56;;;25.54;69.48
74045;BME280;62389;51.412;5.436;2023-09-12T11:53:23;101179.81;;;25.63;70.38
74045;BME280;62389;51.412;5.436;2023-09-12T11:55:53;101173.81;;;25.69;69.21
74045;BME280;62389;51.412;5.436;2023-09-12T11:58:19;101180.28;;;25.58;68.06
74045;BME280;62389;51.412;5.436;2023-09-12T12:00:47;101183.31;;;25.38;68.07
74045;BME280;62389;51.412;5.436;2023-09-12T12:03:14;101186.28;;;25.35;69.69
74045;BME280;62389;51.412;5.436;2023-09-12T12:05:40;101189.41;;;25.48;67.63
74045;BME280;62389;51.412;5.436;2023-09-12T12:08:07;101176.69;;;25.50;67.90
74045;BME280;62389;51.412;5.436;2023-09-12T12:10:34;101180.75;;;25.54;67.99
74045;BME280;62389;51.412;5.436;2023-09-12T12:12:59;101171.47;;;25.66;70.60
74045;BME280;62389;51.412;5.436;2023-09-12T12:15:27;101171.97;;;25.88;70.28
74045;BME280;62389;51.412;5.436;2023-09-12T12:17:54;101176.75;;;26.10;66.84
74045;BME280;62389;51.412;5.436;2023-09-12T12:20:20;101172.47;;;26.17;67.60
74045;BME280;62389;51.412;5.436;2023-09-12T12:22:45;101172.00;;;26.30;67.16
74045;BME280;62389;51.412;5.436;2023-09-12T12:25:11;101164.97;;;26.29;64.12
74045;BME280;62389;51.412;5.436;2023-09-12T12:27:38;101161.81;;;26.33;64.77
74045;BME280;62389;51.412;5.436;2023-09-12T12:30:08;101152.03;;;26.24;61.93
74045;BME280;62389;51.412;5.436;2023-09-12T12:32:39;101159.94;;;26.26;64.91
74045;BME280;62389;51.412;5.436;2023-09-12T12:35:05;101151.38;;;26.30;65.35
74045;BME280;62389;51.412;5.436;2023-09-12T12:37:32;101152.81;;;26.43;64.93
74045;BME280;62389;51.412;5.436;2023-09-12T12:39:59;101143.44;;;26.55;63.45
74045;BME280;62389;51.412;5.436;2023-09-12T12:42:28;101144.16;;;26.57;61.37
74045;BME280;62389;51.412;5.436;2023-09-12T12:44:57;101138.28;;;26.62;63.34
74045;BME280;62389;51.412;5.436;2023-09-12T12:47:22;101143.94;;;26.42;62.73
74045;BME280;62389;51.412;5.436;2023-09-12T12:49:51;101135.94;;;26.24;64.26
74045;BME280;62389;51.412;5.436;2023-09-12T12:52:22;101141.25;;;26.08;64.80
74045;BME280;62389;51.412;5.436;2023-09-12T12:54:48;101141.69;;;25.95;65.95